Aérodrome :
LOGIN :

S'inscrire | Disclaimer

   EN    FR    IT 

 










Légende :    VFR   VFR Marginal   IFR   IFR Intensif   IFR Très Intensif
Visi : 
Plafond : 
>= 8 km
>= 3000ft
5 à 8 km
1000 à 3000 ft
1500m à 5 km
500 à 1000 ft
800 à 1500m
200 à 500 ft
< 800m
< 200 ft
Symboles :   Orages  Brouillard  Fortes neiges  Fortes précipitations  Vent > 20 kt
SIGMETs :   Divers  Orages  Givrage  Turbulence  Onde Orograph.  Cendres Volcan.






- Altitude de l'aérodrome : 1299 ft


EDTY - Adolf Würth

DERNIER METAR :
  • 150750Z 24017KT 9999 OVC040 11/07 Q1002

METARs EXPIRÉS :
  • 150720Z 23015G26KT 9999 OVC043 11/07 Q1001
  • 150650Z AUTO 23015KT 9999 // BKN045/// BKN053/// 11/07 Q1001
  • 150620Z AUTO 23011KT 9999 // BKN054/// BKN140/// 10/07 Q1001
  • 150550Z AUTO 22011KT 190V250 9999 // FEW041/// BKN130/// 10/07 Q1001
  • 150520Z AUTO 22009KT 180V240 9999 // BKN130/// 09/07 Q1001

Prévision TAF périmée.



MET'MAP, la Météo Aéronautique d'un coup d'oeil ! - Copyright ORBIFLY Décembre 2007 - Disclaimer

ORBIFLY MET'MAP TEAM :

Programmation & Développement : Alexandra Zaïnal
Sur une idée originale de : Baudouin d'Aumeries
Assistance à la programmation : Marc-Olivier Méhu
Soutien technique & logistique : Manuel Goepfert

Contact : metmap@orbifly.com




SOURCES & CREDITS :

   NOAA